createdAt,value
2022-11-07T00:02:08.724Z,100481.44
2022-11-07T00:04:36.857Z,100483.47
2022-11-07T00:07:07.285Z,100484.47
2022-11-07T00:09:35.387Z,100481.09
2022-11-07T00:12:03.520Z,100473.28
2022-11-07T00:14:31.485Z,100474.09
2022-11-07T00:16:59.507Z,100474.22
2022-11-07T00:19:27.534Z,100469.03
2022-11-07T00:21:55.755Z,100481.31
2022-11-07T00:24:25.171Z,100487.47
2022-11-07T00:26:53.052Z,100480.56
2022-11-07T00:29:21.969Z,100471.88
2022-11-07T00:31:50.468Z,100468.41
2022-11-07T00:34:18.477Z,100473.59
2022-11-07T00:36:46.530Z,100415.16
2022-11-07T00:39:14.602Z,100468.22
2022-11-07T00:41:43.806Z,100469.00
2022-11-07T00:44:11.890Z,100470.63
2022-11-07T00:46:39.861Z,100469.66
2022-11-07T00:49:07.761Z,100462.53
2022-11-07T00:51:35.892Z,100451.97
2022-11-07T00:54:04.424Z,100450.16
2022-11-07T00:56:32.297Z,100439.25
2022-11-07T00:59:02.199Z,100466.66
2022-11-07T01:01:32.940Z,100441.16
2022-11-07T01:04:18.755Z,100458.84
2022-11-07T01:06:47.773Z,100433.94
2022-11-07T01:09:18.648Z,100461.28
2022-11-07T01:11:47.482Z,100455.81
2022-11-07T01:14:19.925Z,100454.09
2022-11-07T01:16:47.841Z,100430.13
2022-11-07T01:19:16.156Z,100442.44
2022-11-07T01:21:44.345Z,100454.81
2022-11-07T01:24:14.247Z,100452.16
2022-11-07T01:26:44.586Z,100424.63
2022-11-07T01:29:12.505Z,100459.94
2022-11-07T01:31:41.840Z,100440.59
2022-11-07T01:34:09.917Z,100438.91
2022-11-07T01:36:38.085Z,100444.09
2022-11-07T01:39:06.781Z,100443.16
2022-11-07T01:41:37.359Z,100440.50
2022-11-07T01:44:21.111Z,100423.47
2022-11-07T01:46:51.259Z,100431.53
2022-11-07T01:49:24.360Z,100421.88
2022-11-07T01:51:58.298Z,100424.38
2022-11-07T01:54:31.384Z,100382.56
2022-11-07T01:57:04.947Z,100419.69
2022-11-07T01:59:35.385Z,100368.16
2022-11-07T02:02:05.453Z,100427.53
2022-11-07T02:04:33.920Z,100431.03
2022-11-07T02:07:06.925Z,100412.66
2022-11-07T02:09:34.985Z,100418.22
2022-11-07T02:12:03.332Z,100266.97
2022-11-07T02:14:31.764Z,100419.31
2022-11-07T02:17:01.123Z,100412.31
2022-11-07T02:19:36.380Z,100412.22
2022-11-07T02:22:12.643Z,100413.88
2022-11-07T02:24:43.045Z,100410.19
2022-11-07T02:27:14.547Z,100381.09
2022-11-07T02:29:44.925Z,100405.00
2022-11-07T02:32:13.906Z,100363.41
2022-11-07T02:34:41.781Z,100398.72
2022-11-07T02:37:17.232Z,100366.78
2022-11-07T02:39:46.468Z,100392.47
2022-11-07T02:42:14.531Z,100393.31
2022-11-07T02:44:42.589Z,100399.31
2022-11-07T02:47:10.647Z,100392.31
2022-11-07T02:49:38.701Z,100384.41
2022-11-07T02:52:06.706Z,100380.91
2022-11-07T02:54:34.980Z,100377.44
2022-11-07T02:57:04.562Z,100377.50
2022-11-07T02:59:32.589Z,100371.25
2022-11-07T03:02:00.601Z,100367.94
2022-11-07T03:04:28.813Z,100370.63
2022-11-07T03:06:56.836Z,100366.50
2022-11-07T03:09:24.678Z,100358.75
2022-11-07T03:11:53.202Z,100363.22
2022-11-07T03:14:22.654Z,100341.31
2022-11-07T03:16:50.560Z,100355.69
2022-11-07T03:19:18.841Z,100352.31
2022-11-07T03:21:46.785Z,100347.28
2022-11-07T03:24:14.752Z,100336.06
2022-11-07T03:26:42.723Z,100330.09
2022-11-07T03:29:10.865Z,100320.59
2022-11-07T03:31:40.100Z,100311.13
2022-11-07T03:34:08.036Z,100284.69
2022-11-07T03:36:36.075Z,100301.69
2022-11-07T03:39:03.949Z,100294.75
2022-11-07T03:41:31.990Z,100286.75
2022-11-07T03:44:00.077Z,100304.47
2022-11-07T03:46:27.936Z,100305.44
2022-11-07T03:48:57.307Z,100292.41
2022-11-07T03:51:25.885Z,100293.31
2022-11-07T03:53:53.733Z,100294.25
2022-11-07T03:56:21.880Z,100291.72
2022-11-07T03:58:49.846Z,100297.03
2022-11-07T04:01:17.818Z,100291.00
2022-11-07T04:03:45.783Z,100283.22
2022-11-07T04:06:15.551Z,100281.53
2022-11-07T04:08:43.417Z,100261.41
2022-11-07T04:11:31.952Z,100268.53
2022-11-07T04:14:17.444Z,100280.03
2022-11-07T04:17:03.231Z,100270.41
2022-11-07T04:19:31.153Z,100272.34
2022-11-07T04:22:00.528Z,100261.97
2022-11-07T04:24:28.593Z,100255.88
2022-11-07T04:27:19.344Z,100254.22
2022-11-07T04:29:47.288Z,100250.78
2022-11-07T04:32:15.197Z,100247.25
2022-11-07T04:34:43.131Z,100257.91
2022-11-07T04:37:12.588Z,100246.56
2022-11-07T04:39:40.507Z,100248.44
2022-11-07T04:42:08.352Z,100250.28
2022-11-07T04:44:36.571Z,100225.53
2022-11-07T04:47:04.480Z,100245.06
2022-11-07T04:49:32.334Z,100247.84
2022-11-07T04:52:00.401Z,100243.53
2022-11-07T04:54:30.042Z,100252.28
2022-11-07T04:56:57.985Z,100234.66
2022-11-07T04:59:26.149Z,100252.38
2022-11-07T05:01:54.078Z,100248.00
2022-11-07T05:04:21.981Z,100248.88
2022-11-07T05:06:50.136Z,100250.78
2022-11-07T05:09:19.203Z,100268.31
2022-11-07T05:11:49.108Z,100214.69
2022-11-07T05:14:17.260Z,100225.81
2022-11-07T05:16:45.401Z,100225.88
2022-11-07T05:19:17.585Z,100215.47
2022-11-07T05:21:45.964Z,100178.69
2022-11-07T05:24:13.588Z,100197.34
2022-11-07T05:26:41.738Z,100199.13
2022-11-07T05:29:13.251Z,100187.00
2022-11-07T05:31:41.140Z,100187.94
2022-11-07T05:34:14.369Z,100166.94
2022-11-07T05:36:42.567Z,100187.16
2022-11-07T05:39:10.441Z,100163.38
2022-11-07T05:41:38.300Z,100190.72
2022-11-07T05:44:06.690Z,100186.38
2022-11-07T05:46:36.043Z,100187.28
2022-11-07T05:49:03.956Z,100097.25
2022-11-07T05:51:31.976Z,100175.00
2022-11-07T05:53:59.997Z,100190.03
2022-11-07T05:56:27.889Z,100191.78
2022-11-07T05:58:56.054Z,100196.19
2022-11-07T06:01:23.975Z,100174.06
2022-11-07T06:03:53.237Z,100211.94
2022-11-07T06:06:21.430Z,100210.19
2022-11-07T06:08:49.537Z,100215.44
2022-11-07T06:11:17.407Z,100215.44
2022-11-07T06:13:45.567Z,100203.13
2022-11-07T06:16:13.509Z,100196.00
2022-11-07T06:18:41.891Z,100220.66
2022-11-07T06:21:11.816Z,100218.00
2022-11-07T06:23:39.667Z,100223.22
2022-11-07T06:26:07.512Z,100227.59
2022-11-07T06:28:36.012Z,100216.16
2022-11-07T06:31:05.636Z,100175.59
2022-11-07T06:33:33.777Z,100217.97
2022-11-07T06:36:09.978Z,100215.31
2022-11-07T06:38:40.628Z,100212.59
2022-11-07T06:41:10.571Z,100225.75
2022-11-07T06:43:38.831Z,100229.22
2022-11-07T06:46:09.320Z,100228.31
2022-11-07T06:48:38.339Z,100162.97
2022-11-07T06:51:09.808Z,100230.13
2022-11-07T06:53:40.183Z,100211.66
2022-11-07T06:56:09.805Z,100214.25
2022-11-07T06:58:37.725Z,100209.81
2022-11-07T07:01:08.730Z,100220.47
2022-11-07T07:03:37.162Z,100207.34
2022-11-07T07:06:06.620Z,100224.09
2022-11-07T07:08:35.325Z,100221.50
2022-11-07T07:11:06.834Z,100212.69
2022-11-07T07:13:35.617Z,100214.50
2022-11-07T07:16:04.383Z,100217.13
2022-11-07T07:18:32.260Z,100195.13
2022-11-07T07:21:06.063Z,100204.94
2022-11-07T07:23:34.923Z,100207.56
2022-11-07T07:26:05.511Z,100202.34
2022-11-07T07:28:33.968Z,100197.09
2022-11-07T07:31:20.009Z,100188.31
2022-11-07T07:33:48.792Z,100168.97
2022-11-07T07:36:20.798Z,100182.31
2022-11-07T07:38:49.499Z,100154.88
2022-11-07T07:41:19.170Z,100171.78
2022-11-07T07:43:47.161Z,100150.78
2022-11-07T07:46:17.276Z,100105.97
2022-11-07T07:48:45.292Z,100122.06
2022-11-07T07:51:13.106Z,100123.81
2022-11-07T07:53:41.208Z,100120.31
2022-11-07T07:56:09.886Z,100119.47
2022-11-07T07:58:39.150Z,100122.75
2022-11-07T08:01:10.761Z,99945.44
2022-11-07T08:03:59.525Z,100130.03
2022-11-07T08:06:27.087Z,100087.75
2022-11-07T08:08:55.015Z,100123.09
2022-11-07T08:11:23.108Z,100109.72
2022-11-07T08:13:53.149Z,100139.69
2022-11-07T08:16:23.003Z,100136.19
2022-11-07T08:18:50.796Z,100122.19
2022-11-07T08:21:19.091Z,100109.97
2022-11-07T08:23:47.492Z,100109.09
2022-11-07T08:26:15.301Z,100108.28
2022-11-07T08:28:43.242Z,100101.31
2022-11-07T08:31:13.138Z,100078.72
2022-11-07T08:33:41.254Z,100086.09
2022-11-07T08:36:09.626Z,100088.91
2022-11-07T08:38:38.065Z,100073.22
2022-11-07T08:41:06.430Z,100090.16
2022-11-07T08:43:34.421Z,100080.72
2022-11-07T08:46:02.470Z,100092.19
2022-11-07T08:48:31.738Z,100064.09
2022-11-07T08:51:03.179Z,100070.53
2022-11-07T08:53:31.785Z,100061.84
2022-11-07T08:56:03.723Z,100054.75
2022-11-07T08:58:32.481Z,100071.59
2022-11-07T09:01:01.468Z,100067.13
2022-11-07T09:03:47.813Z,100071.50
2022-11-07T09:06:19.101Z,100036.13
2022-11-07T09:08:46.973Z,100057.19
2022-11-07T09:11:15.749Z,100074.72
2022-11-07T09:13:44.339Z,100062.34
2022-11-07T09:16:12.686Z,100071.16
2022-11-07T09:18:40.629Z,100065.13
2022-11-07T09:21:08.611Z,100051.13
2022-11-07T09:23:38.387Z,100059.97
2022-11-07T09:26:06.730Z,100049.50
2022-11-07T09:28:35.153Z,100057.34
2022-11-07T09:31:04.727Z,100041.66
2022-11-07T09:33:33.246Z,100040.00
2022-11-07T09:36:02.116Z,100034.81
2022-11-07T09:38:30.918Z,100049.59
2022-11-07T09:41:06.069Z,100041.47
2022-11-07T09:43:58.776Z,100030.78
2022-11-07T09:46:39.498Z,100040.38
2022-11-07T09:49:18.857Z,100028.91
2022-11-07T09:51:50.694Z,100042.13
2022-11-07T09:54:25.986Z,100035.91
2022-11-07T09:56:58.133Z,100039.47
2022-11-07T09:59:31.713Z,100016.59
2022-11-07T10:01:59.830Z,99990.06
2022-11-07T10:04:27.897Z,99989.22
2022-11-07T10:07:04.470Z,100028.06
2022-11-07T10:09:43.464Z,100018.44
2022-11-07T10:12:23.722Z,100023.69
2022-11-07T10:15:01.713Z,100023.69
2022-11-07T10:17:43.175Z,100029.00
2022-11-07T10:20:25.181Z,99999.22
2022-11-07T10:23:08.338Z,100012.34
2022-11-07T10:25:42.976Z,100011.56
2022-11-07T10:28:16.579Z,100011.59
2022-11-07T10:30:48.471Z,100005.44
2022-11-07T10:33:28.655Z,99999.22
2022-11-07T10:36:02.061Z,100001.00
2022-11-07T10:38:32.187Z,99967.47
2022-11-07T10:41:00.136Z,100000.97
2022-11-07T10:43:35.841Z,100013.19
2022-11-07T10:46:04.923Z,99978.88
2022-11-07T10:48:33.294Z,99952.41
2022-11-07T10:51:01.514Z,99976.16
2022-11-07T10:53:29.877Z,99974.25
2022-11-07T10:55:59.290Z,99996.31
2022-11-07T10:58:35.464Z,99999.75
2022-11-07T11:01:06.119Z,99995.28
2022-11-07T11:03:44.951Z,100002.31
2022-11-07T11:06:22.744Z,99996.25
2022-11-07T11:08:52.605Z,99996.28
2022-11-07T11:11:29.225Z,99992.84
2022-11-07T11:14:13.268Z,99991.13
2022-11-07T11:16:42.667Z,99987.66
2022-11-07T11:19:22.145Z,99981.56
2022-11-07T11:21:52.112Z,99978.13
2022-11-07T11:24:32.799Z,99981.53
2022-11-07T11:27:05.405Z,99953.31
2022-11-07T11:29:40.455Z,99974.50
2022-11-07T11:32:21.377Z,99976.25
2022-11-07T11:35:14.701Z,99979.78
2022-11-07T11:37:48.424Z,99971.91
2022-11-07T11:40:19.654Z,99969.31
2022-11-07T11:42:52.834Z,99954.47
2022-11-07T11:45:32.173Z,99955.31
2022-11-07T11:48:11.096Z,99955.38
2022-11-07T11:50:46.370Z,99911.34
2022-11-07T11:53:17.952Z,99958.81
2022-11-07T11:55:54.523Z,99945.66
2022-11-07T11:58:37.535Z,99948.31
2022-11-07T12:01:12.774Z,99948.25
2022-11-07T12:04:03.737Z,99946.47
2022-11-07T12:06:39.491Z,99928.81
2022-11-07T12:09:25.148Z,99946.25
2022-11-07T12:12:02.706Z,99942.75
2022-11-07T12:15:13.858Z,99935.69
2022-11-07T12:17:48.636Z,99933.03
2022-11-07T12:20:25.675Z,99907.50
2022-11-07T12:23:07.525Z,99921.53
2022-11-07T12:25:42.254Z,99916.97
2022-11-07T12:28:28.028Z,99902.63
2022-11-07T12:31:06.564Z,99917.59
2022-11-07T12:33:44.067Z,99920.06
2022-11-07T12:36:19.105Z,99868.94
2022-11-07T12:39:05.377Z,99915.41
2022-11-07T12:41:41.257Z,99922.28
2022-11-07T12:44:23.884Z,99907.31
2022-11-07T12:46:54.754Z,99904.53
2022-11-07T12:49:47.317Z,99906.19
2022-11-07T12:52:27.190Z,99913.97
2022-11-07T12:55:00.439Z,99898.94
2022-11-07T12:57:31.795Z,99896.34
2022-11-07T13:00:05.532Z,99876.97
2022-11-07T13:02:48.224Z,99886.75
2022-11-07T13:05:39.097Z,99899.84
2022-11-07T13:08:16.539Z,99894.63
2022-11-07T13:10:54.543Z,99862.09
2022-11-07T13:13:29.280Z,99854.16
2022-11-07T13:16:15.557Z,99832.16
2022-11-07T13:18:43.861Z,99879.88
2022-11-07T13:21:13.209Z,99872.94
2022-11-07T13:23:41.613Z,99874.72
2022-11-07T13:26:32.925Z,99871.28
2022-11-07T13:28:59.253Z,99867.81
2022-11-07T13:31:36.549Z,99861.81
2022-11-07T13:34:12.328Z,99739.53
2022-11-07T13:36:42.013Z,99854.88
2022-11-07T13:39:14.271Z,99824.13
2022-11-07T13:41:45.364Z,99866.44
2022-11-07T13:44:21.498Z,99846.25
2022-11-07T13:46:53.405Z,99855.00
2022-11-07T13:49:26.957Z,99855.09
2022-11-07T13:52:02.271Z,99863.94
2022-11-07T13:54:35.956Z,99866.59
2022-11-07T13:57:09.531Z,99858.75
2022-11-07T13:59:45.409Z,99850.06
2022-11-07T14:02:20.815Z,99855.34
2022-11-07T14:05:15.275Z,99853.59
2022-11-07T14:07:44.531Z,99845.78
2022-11-07T14:10:23.543Z,99845.81
2022-11-07T14:12:54.310Z,99848.44
2022-11-07T14:15:22.269Z,99821.19
2022-11-07T14:17:50.360Z,99843.16
2022-11-07T14:20:20.798Z,99846.69
2022-11-07T14:22:54.716Z,99858.03
2022-11-07T14:25:28.991Z,99846.69
2022-11-07T14:27:57.624Z,99823.00
2022-11-07T14:30:27.011Z,99831.81
2022-11-07T14:32:56.748Z,99831.81
2022-11-07T14:35:26.913Z,99832.69
2022-11-07T14:37:57.208Z,99830.09
2022-11-07T14:40:26.052Z,99819.63
2022-11-07T14:42:55.028Z,99816.13
2022-11-07T14:45:47.117Z,99821.34
2022-11-07T14:48:14.526Z,99810.81
2022-11-07T14:50:43.465Z,99812.59
2022-11-07T14:53:20.061Z,99808.19
2022-11-07T14:55:51.765Z,99787.03
2022-11-07T14:58:22.683Z,99800.31
2022-11-07T15:00:56.134Z,99788.91
2022-11-07T15:03:30.956Z,99797.69
2022-11-07T15:05:59.967Z,99787.16
2022-11-07T15:08:31.868Z,99783.78
2022-11-07T15:11:05.546Z,99790.78
2022-11-07T15:13:34.546Z,99789.00
2022-11-07T15:16:05.618Z,99778.50
2022-11-07T15:18:39.122Z,99768.88
2022-11-07T15:21:08.974Z,99767.13
2022-11-07T15:23:38.151Z,99770.56
2022-11-07T15:26:13.623Z,99772.34
2022-11-07T15:28:46.482Z,99778.38
2022-11-07T15:31:21.499Z,99758.19
2022-11-07T15:33:49.750Z,99778.38
2022-11-07T15:36:18.712Z,99774.88
2022-11-07T15:38:49.472Z,99739.72
2022-11-07T15:41:17.383Z,99770.56
2022-11-07T15:43:45.440Z,99772.34
2022-11-07T15:46:27.525Z,99751.19
2022-11-07T15:48:55.632Z,99749.63
2022-11-07T15:51:23.524Z,99761.94
2022-11-07T15:53:52.892Z,99759.31
2022-11-07T15:56:24.385Z,99749.66
2022-11-07T15:58:52.756Z,99735.69
2022-11-07T16:01:21.088Z,99745.38
2022-11-07T16:03:48.985Z,99734.91
2022-11-07T16:06:22.626Z,99736.66
2022-11-07T16:08:51.933Z,99724.44
2022-11-07T16:11:19.780Z,99676.03
2022-11-07T16:13:47.717Z,99729.69
2022-11-07T16:16:20.465Z,99691.97
2022-11-07T16:18:50.820Z,99717.50
2022-11-07T16:21:19.247Z,99714.91
2022-11-07T16:23:49.791Z,99696.47
2022-11-07T16:26:27.347Z,99663.09
2022-11-07T16:28:55.342Z,99691.22
2022-11-07T16:31:23.432Z,99692.19
2022-11-07T16:33:53.412Z,99706.25
2022-11-07T16:36:24.454Z,99705.41
2022-11-07T16:38:52.867Z,99693.13
2022-11-07T16:41:23.090Z,99694.09
2022-11-07T16:43:51.848Z,99684.44
2022-11-07T16:46:22.412Z,99690.63
2022-11-07T16:48:53.139Z,99684.50
2022-11-07T16:51:22.605Z,99680.94
2022-11-07T16:53:50.778Z,99677.53
2022-11-07T16:56:26.032Z,99668.75
2022-11-07T16:58:55.390Z,99682.84
2022-11-07T17:01:24.687Z,99683.72
2022-11-07T17:03:53.369Z,99669.72
2022-11-07T17:06:29.261Z,99646.78
2022-11-07T17:09:05.912Z,99682.63
2022-11-07T17:11:40.161Z,99673.84
2022-11-07T17:14:08.314Z,99670.28
2022-11-07T17:16:36.974Z,99645.69
2022-11-07T17:19:05.737Z,99661.47
2022-11-07T17:21:36.467Z,99618.44
2022-11-07T17:24:05.558Z,99655.31
2022-11-07T17:26:40.212Z,99654.44
2022-11-07T17:29:14.122Z,99588.56
2022-11-07T17:31:44.828Z,99642.13
2022-11-07T17:34:14.028Z,99636.00
2022-11-07T17:36:46.460Z,99579.72
2022-11-07T17:39:16.267Z,99642.03
2022-11-07T17:41:46.182Z,99656.81
2022-11-07T17:44:16.405Z,99671.59
2022-11-07T17:46:46.793Z,99658.47
2022-11-07T17:49:17.585Z,99655.81
2022-11-07T17:51:46.348Z,99649.63
2022-11-07T17:54:15.921Z,99653.88
2022-11-07T17:56:44.408Z,99655.53
2022-11-07T17:59:18.746Z,99592.16
2022-11-07T18:01:47.145Z,99608.84
2022-11-07T18:04:16.325Z,99586.75
2022-11-07T18:06:44.759Z,99645.59
2022-11-07T18:09:16.394Z,99646.41
2022-11-07T18:11:47.396Z,99640.25
2022-11-07T18:14:17.142Z,99648.06
2022-11-07T18:16:48.590Z,99562.03
2022-11-07T18:19:18.841Z,99615.66
2022-11-07T18:21:46.813Z,99625.13
2022-11-07T18:24:15.735Z,99635.75
2022-11-07T18:26:43.757Z,99574.19
2022-11-07T18:29:13.861Z,99620.75
2022-11-07T18:31:43.876Z,99642.66
2022-11-07T18:34:13.606Z,99617.22
2022-11-07T18:36:43.922Z,99635.63
2022-11-07T18:39:16.872Z,99627.78
2022-11-07T18:41:46.932Z,99626.84
2022-11-07T18:44:15.759Z,99626.81
2022-11-07T18:46:49.321Z,99585.53
2022-11-07T18:49:18.799Z,99606.59
2022-11-07T18:51:52.680Z,99494.88
2022-11-07T18:54:22.270Z,99612.69
2022-11-07T18:56:50.125Z,99619.59
2022-11-07T18:59:18.247Z,99620.44
2022-11-07T19:01:47.832Z,99608.19
2022-11-07T19:04:16.197Z,99616.00
2022-11-07T19:06:57.385Z,99602.03
2022-11-07T19:09:28.125Z,99594.00
2022-11-07T19:11:56.307Z,99609.84
2022-11-07T19:14:26.931Z,99611.56
2022-11-07T19:16:59.269Z,99606.34
2022-11-07T19:19:30.309Z,99595.03
2022-11-07T19:21:58.341Z,99561.53
2022-11-07T19:24:30.826Z,99556.31
2022-11-07T19:27:03.828Z,99587.25
2022-11-07T19:29:32.057Z,99589.88
2022-11-07T19:32:03.151Z,99594.28
2022-11-07T19:34:30.951Z,99576.72
2022-11-07T19:36:58.928Z,99575.00
2022-11-07T19:39:26.990Z,99574.19
2022-11-07T19:41:55.179Z,99568.13
2022-11-07T19:44:23.250Z,99591.00
2022-11-07T19:46:51.213Z,99576.22
2022-11-07T19:49:21.080Z,99597.19
2022-11-07T19:51:48.989Z,99586.78
2022-11-07T19:54:17.471Z,99578.09
2022-11-07T19:56:45.315Z,99578.13
2022-11-07T19:59:17.855Z,99596.47
2022-11-07T20:01:54.431Z,99590.41
2022-11-07T20:04:35.867Z,99534.22
2022-11-07T20:07:03.740Z,99554.47
2022-11-07T20:09:31.757Z,99471.03
2022-11-07T20:11:59.765Z,99598.31
2022-11-07T20:14:27.855Z,99587.88
2022-11-07T20:17:01.263Z,99577.34
2022-11-07T20:19:31.651Z,99580.06
2022-11-07T20:22:01.669Z,99591.41
2022-11-07T20:24:30.080Z,99591.41
2022-11-07T20:26:58.098Z,99538.81
2022-11-07T20:29:26.687Z,99580.88
2022-11-07T20:31:54.689Z,99597.56
2022-11-07T20:34:22.560Z,99584.50
2022-11-07T20:36:53.879Z,99592.34
2022-11-07T20:39:23.242Z,99587.16
2022-11-07T20:41:51.602Z,99595.00
2022-11-07T20:44:19.575Z,99589.69
2022-11-07T20:46:47.611Z,99600.19
2022-11-07T20:49:17.289Z,99609.84
2022-11-07T20:51:48.906Z,99615.97
2022-11-07T20:54:17.583Z,99611.56
2022-11-07T20:56:46.797Z,99618.53
2022-11-07T20:59:22.044Z,99611.56
2022-11-07T21:01:51.188Z,99608.94
2022-11-07T21:04:21.843Z,99601.06
2022-11-07T21:06:52.900Z,99603.69
2022-11-07T21:09:21.873Z,99605.44
2022-11-07T21:11:51.427Z,99574.66
2022-11-07T21:14:19.352Z,99600.19
2022-11-07T21:16:48.032Z,99590.50
2022-11-07T21:19:18.750Z,99610.69
2022-11-07T21:21:50.747Z,99601.97
2022-11-07T21:24:18.793Z,99604.63
2022-11-07T21:26:47.668Z,99612.47
2022-11-07T21:29:17.130Z,99602.03
2022-11-07T21:31:45.120Z,99599.41
2022-11-07T21:34:13.828Z,99601.16
2022-11-07T21:36:42.815Z,99604.50
2022-11-07T21:39:11.393Z,99629.94
2022-11-07T21:41:39.324Z,99575.53
2022-11-07T21:44:07.201Z,99629.91
2022-11-07T21:46:36.478Z,99615.81
2022-11-07T21:49:06.308Z,99592.03
2022-11-07T21:51:35.913Z,99626.38
2022-11-07T21:54:05.560Z,99628.97
2022-11-07T21:56:38.194Z,99568.28
2022-11-07T21:59:08.364Z,99628.06
2022-11-07T22:01:39.653Z,99591.94
2022-11-07T22:04:11.578Z,99584.94
2022-11-07T22:06:46.113Z,99482.94
2022-11-07T22:09:16.956Z,99640.22
2022-11-07T22:11:45.157Z,99641.06
2022-11-07T22:14:14.829Z,99626.91
2022-11-07T22:16:44.361Z,99649.75
2022-11-07T22:19:13.074Z,99599.53
2022-11-07T22:21:41.583Z,99668.00
2022-11-07T22:24:09.961Z,99652.19
2022-11-07T22:26:37.931Z,99654.00
2022-11-07T22:29:05.934Z,99665.31
2022-11-07T22:31:33.900Z,99594.97
2022-11-07T22:34:03.359Z,99658.25
2022-11-07T22:36:31.339Z,99674.84
2022-11-07T22:38:59.866Z,99670.47
2022-11-07T22:41:29.270Z,99658.16
2022-11-07T22:43:58.172Z,99659.00
2022-11-07T22:46:30.652Z,99665.25
2022-11-07T22:49:00.178Z,99673.09
2022-11-07T22:51:31.794Z,99656.47
2022-11-07T22:54:02.263Z,99674.00
2022-11-07T22:56:35.248Z,99649.38
2022-11-07T22:59:07.713Z,99643.22
2022-11-07T23:01:37.180Z,99659.91
2022-11-07T23:04:05.998Z,99673.97
2022-11-07T23:06:37.799Z,99680.09
2022-11-07T23:09:06.292Z,99667.75
2022-11-07T23:11:52.075Z,99682.75
2022-11-07T23:14:25.631Z,99685.34
2022-11-07T23:16:57.486Z,99681.84
2022-11-07T23:19:31.960Z,99679.91
2022-11-07T23:22:01.468Z,99682.66
2022-11-07T23:24:32.299Z,99688.75
2022-11-07T23:27:00.291Z,99692.22
2022-11-07T23:29:34.292Z,99682.63
2022-11-07T23:32:02.268Z,99657.84
2022-11-07T23:34:30.328Z,99700.03
2022-11-07T23:36:58.831Z,99679.81
2022-11-07T23:39:30.894Z,99704.34
2022-11-07T23:41:58.767Z,99668.31
2022-11-07T23:44:26.662Z,99712.16
2022-11-07T23:47:14.955Z,99642.69
2022-11-07T23:50:18.499Z,99609.19
2022-11-07T23:52:48.499Z,99717.34
2022-11-07T23:55:39.974Z,99699.72
2022-11-07T23:58:25.897Z,99663.69
